Aviation Digital Data Service (ADDS)

Output produced by METARs form (2240 UTC 30 March 2017)
found at http://www.aviationweather.gov/adds/metars/
 
KRAP 301720Z 3018/3118 14012KT P6SM BKN100 
     FM310000 11008KT P6SM BKN070 
     FM310900 08006KT 5SM BR BKN008
       
KRBG 301739Z 3018/3118 29004KT P6SM -RA BKN023 BKN029 OVC045 
     FM302100 33010KT P6SM -SHRA SCT025 BKN040 
     FM310300 36003KT P6SM BKN040 
     FM310800 00000KT P6SM BKN020 OVC035
       
KRBL 301724Z 3018/3118 34020G30KT P6SM SKC 
     FM310300 34011KT P6SM SKC
       
TAF KRCA 301900Z 3019/0101 16012KT 9999 BKN080 620809 QNH2968INS 
     BECMG 3105/3106 09009KT 9000 -RA SCT015 OVC030 620309 QNH2983INS 
     BECMG 3111/3112 09006KT 8000 -RA BKN015 OVC025 620259 QNH3002INS TX13/3021Z TN04/3117Z
       
KRDD 301724Z 3018/3118 36016KT P6SM FEW080 
     FM310300 35011KT P6SM SKC
       
KRDG 301728Z 3018/3118 16004KT P6SM BKN100 BKN250 
     FM310000 13005KT P6SM OVC050 
     FM310400 13005KT P6SM BKN025 OVC050 
     PROB30 3104/3106 4SM -RA OVC015 
     FM310600 12005KT 4SM -RA BR OVC005 
     FM311200 08010KT 2SM RA BR BKN003 OVC010
       
KRDM 301802Z 3018/3118 30015G23KT P6SM SCT040 BKN060 
     FM302100 32017G27KT P6SM BKN060 
     FM310400 32007KT P6SM SCT250 
     FM311000 VRB05KT P6SM FEW040
       
TAF KRDR 301800Z 3018/3124 17010G15KT 9999 FEW020 QNH2984INS 
     BECMG 3023/3024 16009KT 9999 SCT030 BKN250 QNH2988INS 
     BECMG 3105/3106 06009KT 9999 BKN250 QNH2991INS 
     BECMG 3115/3116 06009KT 9999 BKN070 OVC200 620703 QNH3005INS TX12/3021Z TN02/3112Z
       
KRDU 301720Z 3018/3118 11008KT P6SM BKN045 OVC060 
     FM310500 15008KT P6SM VCSH BKN015 OVC040 
     FM310800 17011G20KT 3SM SHRA BR BKN008 OVC060 
     TEMPO 3109/3112 2SM +TSRA BR SCT008 OVC025CB 
     FM311600 21013G23KT P6SM VCSH BKN030
       
KRIC 301735Z 3018/3118 13007KT P6SM OVC050 
     FM310600 13006KT P6SM OVC030 
     FM310900 14008KT P6SM SHRA OVC012 
     FM311200 15009KT 3SM SHRA OVC010 WS020/17040KT 
     FM311500 16010KT 3SM SHRA OVC005
       
KRIL 301739Z 3018/3118 VRB03KT P6SM SCT100 
     FM302100 26008KT P6SM SCT100 SCT150 
     FM310200 VRB04KT P6SM VCSH SCT030 BKN060 
     FM310600 24008KT P6SM -RA SCT020 BKN040 
     FM311200 VRB04KT P6SM VCSH SCT030 BKN060
       
TAF KRIV 302002Z 3020/0102 31009KT 9999 BKN250 QNH2984INS 
     TEMPO 3021/3101 31015G25KT 520009 
     BECMG 3100/3101 31012KT 9999 FEW250 QNH2987INS 
     TEMPO 3106/3110 35015G25KT 520009 
     BECMG 3114/3115 32009KT 9999 SKC QNH2989INS TX25/3022Z TN06/3114Z
       
KRIW 301743Z 3018/3118 VRB06KT P6SM SCT090 BKN150 
     FM310100 36014KT P6SM VCSH OVC060 
     FM310300 36014G24KT P6SM -RA OVC028 
     FM310900 36020G30KT 5SM -RA OVC020 
     FM311200 03020G30KT 3SM -RASN OVC010 
     FM311500 04020G30KT 3/4SM -SN OVC010
       
KRKD 301722Z 3018/3118 31012KT P6SM BKN050 
     FM310200 VRB03KT P6SM FEW250 
     FM311400 02007KT P6SM BKN200
       
KRKS 302136Z 3022/3118 29014KT P6SM SCT040 BKN090 
     FM310000 07011KT P6SM -RA SCT020 OVC028 
     FM311100 07014G24KT P6SM VCSH BKN040 
     FM311500 06025G34KT P6SM VCSH BKN040
       
KRME 301720Z 3018/3118 VRB03KT P6SM FEW250 
     FM302200 11006KT P6SM BKN090 
     FM310400 10009KT 5SM -RA OVC020 
     FM310600 10010KT 2SM -RASN OVC015 
     FM310900 11011KT 3SM -RASN OVC010 
     FM311400 11013G21KT 1 1/2SM -RA OVC003
       
KRNO 301737Z 3018/3118 30012G22KT P6SM SCT040 BKN080 
     FM302000 33020G32KT P6SM SCT080 SCT180 
     FM310400 35011KT P6SM FEW060 
     FM311000 32009KT P6SM SKC
       
KROA 302147Z 3022/3118 12006KT P6SM VCSH OVC025 
     FM310300 10004KT P6SM VCSH OVC008 
     FM310600 VRB03KT 6SM -SHRA OVC003 
     FM311600 19006KT 5SM -SHRA OVC008 
     FM311700 21007KT 5SM -SHRA OVC010
       
KROC 302102Z 3021/3118 12010KT P6SM BKN050 OVC060 
     FM310100 09009KT 3SM -RA BR OVC012 
     FM310300 09012KT 6SM -RA OVC012 
     FM311700 10012KT 6SM -RA OVC007
       
KROG 301720Z 3018/3118 24013G18KT P6SM OVC025 
     TEMPO 3018/3020 5SM -RA BR OVC012 
     FM310200 29005KT P6SM OVC015 
     FM311500 34005KT P6SM SCT015
       
KROW 301724Z 3018/3118 23010KT P6SM SCT250 
     FM302100 23011G21KT P6SM SCT250 
     FM310200 21010KT P6SM SCT200 
     FM311600 20018G30KT P6SM BKN200
       
KRSL 301848Z 3019/3118 34017G21KT P6SM OVC015 
     FM302100 34012G19KT P6SM OVC020 
     FM310100 01008KT P6SM SCT035 
     FM310700 06005KT P6SM BKN050 
     FM311100 06006KT 1SM BR BKN008 OVC020 
     FM311600 07011KT 3SM BR BKN010
       
KRST 301951Z 3020/3118 07015KT P6SM -RA OVC011 
     FM310600 03010KT P6SM OVC012 
     FM311300 01010KT P6SM OVC020
       
KRSW 301722Z 3018/3118 19012G18KT P6SM SCT060 SCT250 
     FM302300 22007KT P6SM SCT250 
     FM310200 17005KT P6SM BKN250 
     FM311300 17008KT P6SM SCT010 BKN250 
     FM311500 19013G20KT P6SM VCSH SCT035 BKN250
       
KRUT 301724Z 3018/3118 34008KT P6SM FEW200 
     FM302300 07004KT P6SM BKN200 
     FM310600 13005KT 4SM -SN BR OVC050 
     FM310800 13009KT 2SM -SN BR OVC030 
     FM311500 14010G18KT 4SM -SNRA OVC028
       
KRVS 301720Z 3018/3118 30012G20KT P6SM OVC022 
     FM310200 00000KT P6SM SCT040 
     TEMPO 3110/3114 4SM BR 
     FM311400 05005KT P6SM SCT050
       
KRWI 302129Z 3021/3118 12008G15KT P6SM FEW060 OVC090 
     FM310500 15008KT P6SM VCSH BKN015 OVC040 
     FM310900 17011G20KT 3SM SHRA BR BKN012 OVC060 
     TEMPO 3110/3113 2SM +TSRA BR SCT008 OVC025CB 
     FM311700 21013G23KT P6SM VCSH SCT030 BKN050
       
KRWL 301720Z 3018/3118 23018G29KT P6SM VCSH OVC045 
     TEMPO 3018/3021 5SM -SHRA OVC025 
     FM302100 23015G25KT P6SM VCSH OVC040 
     FM310100 05007KT P6SM OVC035 
     FM310600 05006KT 2SM -SN BR OVC015 
     FM311500 05014KT 4SM -SN OVC025
       
KRYY 302143Z 3022/3118 19012G20KT P6SM FEW060 BKN100 
     FM302300 20010G18KT P6SM VCSH BKN050 
     FM310300 18008KT 5SM -SHRA BKN030 
     TEMPO 3103/3107 VRB20G30KT 3SM TSRA BKN020CB 
     FM310700 23010KT P6SM VCSH OVC015 
     FM311400 26012KT P6SM BKN030